sensor_id;sensor_type;location;lat;lon;timestamp;pressure;altitude;pressure_sealevel;temperature;humidity
77159;BME280;66129;45.890;13.714;2023-08-24T00:01:37;101019.06;;;23.30;98.92
77159;BME280;66129;45.890;13.714;2023-08-24T00:04:03;101014.75;;;23.29;98.71
77159;BME280;66129;45.890;13.714;2023-08-24T00:06:28;101020.19;;;23.21;100.00
77159;BME280;66129;45.890;13.714;2023-08-24T00:08:54;101022.06;;;23.16;100.00
77159;BME280;66129;45.890;13.714;2023-08-24T00:11:19;101023.72;;;23.19;100.00
77159;BME280;66129;45.890;13.714;2023-08-24T00:13:45;101025.28;;;23.26;98.96
77159;BME280;66129;45.890;13.714;2023-08-24T00:16:19;101019.19;;;23.25;98.97
77159;BME280;66129;45.890;13.714;2023-08-24T00:18:45;101020.06;;;23.24;98.71
77159;BME280;66129;45.890;13.714;2023-08-24T00:21:13;101021.03;;;23.22;98.82
77159;BME280;66129;45.890;13.714;2023-08-24T00:23:42;101012.44;;;23.17;98.77
77159;BME280;66129;45.890;13.714;2023-08-24T00:26:07;101013.34;;;23.16;98.71
77159;BME280;66129;45.890;13.714;2023-08-24T00:28:33;101015.22;;;23.11;99.88
77159;BME280;66129;45.890;13.714;2023-08-24T00:30:58;101012.63;;;23.11;98.80
77159;BME280;66129;45.890;13.714;2023-08-24T00:33:24;101013.03;;;22.94;99.41
77159;BME280;66129;45.890;13.714;2023-08-24T00:35:49;101022.72;;;22.91;99.39
77159;BME280;66129;45.890;13.714;2023-08-24T00:38:15;101008.88;;;22.87;100.00
77159;BME280;66129;45.890;13.714;2023-08-24T00:40:42;101017.66;;;22.85;99.23
77159;BME280;66129;45.890;13.714;2023-08-24T00:43:07;101011.03;;;22.72;100.00
77159;BME280;66129;45.890;13.714;2023-08-24T00:45:33;101013.81;;;22.66;100.00
77159;BME280;66129;45.890;13.714;2023-08-24T00:47:59;101007.91;;;22.58;100.00
77159;BME280;66129;45.890;13.714;2023-08-24T00:50:25;101011.66;;;22.48;100.00
77159;BME280;66129;45.890;13.714;2023-08-24T00:52:51;101012.56;;;22.47;100.00
77159;BME280;66129;45.890;13.714;2023-08-24T00:55:17;101013.47;;;22.45;100.00
77159;BME280;66129;45.890;13.714;2023-08-24T00:57:43;101011.53;;;22.52;100.00
77159;BME280;66129;45.890;13.714;2023-08-24T01:00:09;101005.44;;;22.53;100.00
77159;BME280;66129;45.890;13.714;2023-08-24T01:02:39;101010.84;;;22.46;100.00
77159;BME280;66129;45.890;13.714;2023-08-24T01:05:05;101009.84;;;22.50;100.00
77159;BME280;66129;45.890;13.714;2023-08-24T01:07:33;101009.22;;;22.42;100.00
77159;BME280;66129;45.890;13.714;2023-08-24T01:10:00;101006.84;;;22.30;100.00
77159;BME280;66129;45.890;13.714;2023-08-24T01:12:52;101017.38;;;22.27;100.00
77159;BME280;66129;45.890;13.714;2023-08-24T01:15:34;101016.59;;;22.22;100.00
77159;BME280;66129;45.890;13.714;2023-08-24T01:18:10;101013.28;;;22.16;100.00
77159;BME280;66129;45.890;13.714;2023-08-24T01:20:39;101015.88;;;22.17;100.00
77159;BME280;66129;45.890;13.714;2023-08-24T01:28:15;101009.84;;;22.15;100.00
77159;BME280;66129;45.890;13.714;2023-08-24T01:30:43;101007.16;;;22.18;100.00
77159;BME280;66129;45.890;13.714;2023-08-24T01:33:09;101000.31;;;22.13;100.00
77159;BME280;66129;45.890;13.714;2023-08-24T01:35:38;101004.44;;;22.21;100.00
77159;BME280;66129;45.890;13.714;2023-08-24T01:38:04;100996.47;;;22.27;100.00
77159;BME280;66129;45.890;13.714;2023-08-24T01:43:36;101008.44;;;22.37;100.00
77159;BME280;66129;45.890;13.714;2023-08-24T01:46:06;101006.75;;;22.35;100.00
77159;BME280;66129;45.890;13.714;2023-08-24T01:48:32;101012.00;;;22.33;100.00
77159;BME280;66129;45.890;13.714;2023-08-24T01:50:58;101001.69;;;22.27;100.00
77159;BME280;66129;45.890;13.714;2023-08-24T01:53:26;101002.78;;;22.19;100.00
77159;BME280;66129;45.890;13.714;2023-08-24T01:55:53;101002.63;;;22.25;100.00
77159;BME280;66129;45.890;13.714;2023-08-24T01:58:18;100998.25;;;22.25;100.00
77159;BME280;66129;45.890;13.714;2023-08-24T02:00:44;100996.53;;;22.24;100.00
77159;BME280;66129;45.890;13.714;2023-08-24T02:03:10;100993.03;;;22.25;100.00
77159;BME280;66129;45.890;13.714;2023-08-24T02:05:36;101002.44;;;22.34;100.00
77159;BME280;66129;45.890;13.714;2023-08-24T02:08:01;100997.22;;;22.32;100.00
77159;BME280;66129;45.890;13.714;2023-08-24T02:10:27;100991.16;;;22.30;100.00
77159;BME280;66129;45.890;13.714;2023-08-24T02:12:52;101005.13;;;22.29;100.00
77159;BME280;66129;45.890;13.714;2023-08-24T02:15:18;101005.34;;;22.20;100.00
77159;BME280;66129;45.890;13.714;2023-08-24T02:17:43;101002.91;;;22.14;100.00
77159;BME280;66129;45.890;13.714;2023-08-24T02:20:10;101006.53;;;22.07;100.00
77159;BME280;66129;45.890;13.714;2023-08-24T02:22:37;100997.94;;;22.02;100.00
77159;BME280;66129;45.890;13.714;2023-08-24T02:25:03;100998.13;;;21.95;100.00
77159;BME280;66129;45.890;13.714;2023-08-24T02:27:30;100997.41;;;21.88;100.00
77159;BME280;66129;45.890;13.714;2023-08-24T02:29:56;100992.34;;;21.81;100.00
77159;BME280;66129;45.890;13.714;2023-08-24T02:32:22;100997.63;;;21.79;100.00
77159;BME280;66129;45.890;13.714;2023-08-24T02:34:47;101000.94;;;21.86;100.00
77159;BME280;66129;45.890;13.714;2023-08-24T02:37:13;100999.22;;;21.85;100.00
77159;BME280;66129;45.890;13.714;2023-08-24T02:39:38;100985.53;;;21.75;100.00
77159;BME280;66129;45.890;13.714;2023-08-24T02:42:04;100985.47;;;21.78;100.00
77159;BME280;66129;45.890;13.714;2023-08-24T02:44:30;100992.53;;;21.73;100.00
77159;BME280;66129;45.890;13.714;2023-08-24T02:46:56;100990.84;;;21.71;100.00
77159;BME280;66129;45.890;13.714;2023-08-24T02:49:22;100989.19;;;21.67;100.00
77159;BME280;66129;45.890;13.714;2023-08-24T02:51:48;100992.72;;;21.64;100.00
77159;BME280;66129;45.890;13.714;2023-08-24T02:54:14;100988.56;;;21.54;100.00
77159;BME280;66129;45.890;13.714;2023-08-24T02:56:39;100992.00;;;21.56;100.00
77159;BME280;66129;45.890;13.714;2023-08-24T02:59:05;100987.75;;;21.52;100.00
77159;BME280;66129;45.890;13.714;2023-08-24T03:01:31;100988.94;;;21.38;100.00
77159;BME280;66129;45.890;13.714;2023-08-24T03:03:56;100982.22;;;21.27;100.00
77159;BME280;66129;45.890;13.714;2023-08-24T03:06:22;100982.22;;;21.25;100.00
77159;BME280;66129;45.890;13.714;2023-08-24T03:08:49;100996.88;;;21.30;100.00
77159;BME280;66129;45.890;13.714;2023-08-24T03:11:14;100986.50;;;21.29;100.00
77159;BME280;66129;45.890;13.714;2023-08-24T03:13:40;100986.22;;;21.42;100.00
77159;BME280;66129;45.890;13.714;2023-08-24T03:16:06;100995.69;;;21.46;100.00
77159;BME280;66129;45.890;13.714;2023-08-24T03:18:33;100991.13;;;21.57;100.00
77159;BME280;66129;45.890;13.714;2023-08-24T03:20:58;100983.34;;;21.54;100.00
77159;BME280;66129;45.890;13.714;2023-08-24T03:23:24;100980.75;;;21.54;100.00
77159;BME280;66129;45.890;13.714;2023-08-24T03:25:50;100985.91;;;21.57;100.00
77159;BME280;66129;45.890;13.714;2023-08-24T03:28:15;100980.81;;;21.50;100.00
77159;BME280;66129;45.890;13.714;2023-08-24T03:30:47;100988.59;;;21.53;100.00
77159;BME280;66129;45.890;13.714;2023-08-24T03:33:13;100980.75;;;21.53;100.00
77159;BME280;66129;45.890;13.714;2023-08-24T03:35:39;100981.94;;;21.38;100.00
77159;BME280;66129;45.890;13.714;2023-08-24T03:38:05;100979.31;;;21.40;100.00
77159;BME280;66129;45.890;13.714;2023-08-24T03:40:30;100980.34;;;21.33;100.00
77159;BME280;66129;45.890;13.714;2023-08-24T03:42:56;100984.06;;;21.22;100.00
77159;BME280;66129;45.890;13.714;2023-08-24T03:45:22;100989.16;;;21.26;100.00
77159;BME280;66129;45.890;13.714;2023-08-24T03:47:48;100985.00;;;21.18;100.00
77159;BME280;66129;45.890;13.714;2023-08-24T03:50:14;100985.22;;;21.07;100.00
77159;BME280;66129;45.890;13.714;2023-08-24T03:52:39;100981.81;;;21.02;100.00
77159;BME280;66129;45.890;13.714;2023-08-24T03:55:06;100986.03;;;21.09;100.00
77159;BME280;66129;45.890;13.714;2023-08-24T03:57:32;100989.34;;;21.17;100.00
77159;BME280;66129;45.890;13.714;2023-08-24T03:59:57;100979.78;;;21.18;100.00
77159;BME280;66129;45.890;13.714;2023-08-24T04:02:23;100976.25;;;21.20;100.00
77159;BME280;66129;45.890;13.714;2023-08-24T04:04:50;100983.03;;;21.29;100.00
77159;BME280;66129;45.890;13.714;2023-08-24T04:07:16;100975.22;;;21.27;100.00
77159;BME280;66129;45.890;13.714;2023-08-24T04:09:41;100976.09;;;21.28;100.00
77159;BME280;66129;45.890;13.714;2023-08-24T04:12:07;100980.28;;;21.36;100.00
77159;BME280;66129;45.890;13.714;2023-08-24T04:14:33;100984.56;;;21.38;100.00
77159;BME280;66129;45.890;13.714;2023-08-24T04:16:58;100984.50;;;21.41;100.00
77159;BME280;66129;45.890;13.714;2023-08-24T04:19:23;100977.69;;;21.34;100.00
77159;BME280;66129;45.890;13.714;2023-08-24T04:21:49;100984.72;;;21.29;100.00
77159;BME280;66129;45.890;13.714;2023-08-24T04:24:14;100980.44;;;21.29;100.00
77159;BME280;66129;45.890;13.714;2023-08-24T04:26:40;100984.16;;;21.16;100.00
77159;BME280;66129;45.890;13.714;2023-08-24T04:29:05;100972.34;;;20.98;100.00
77159;BME280;66129;45.890;13.714;2023-08-24T04:31:31;100980.00;;;21.06;100.00
77159;BME280;66129;45.890;13.714;2023-08-24T04:33:56;100992.09;;;21.10;100.00
77159;BME280;66129;45.890;13.714;2023-08-24T04:36:22;100995.59;;;21.09;100.00
77159;BME280;66129;45.890;13.714;2023-08-24T04:38:47;100999.03;;;21.12;100.00
77159;BME280;66129;45.890;13.714;2023-08-24T04:41:13;100999.88;;;21.13;100.00
77159;BME280;66129;45.890;13.714;2023-08-24T04:43:38;101006.63;;;21.21;100.00
77159;BME280;66129;45.890;13.714;2023-08-24T04:46:04;101010.13;;;21.20;100.00
77159;BME280;66129;45.890;13.714;2023-08-24T04:48:30;101003.09;;;21.25;100.00
77159;BME280;66129;45.890;13.714;2023-08-24T04:51:02;101010.47;;;21.47;100.00
77159;BME280;66129;45.890;13.714;2023-08-24T04:53:28;101006.41;;;21.75;100.00
77159;BME280;66129;45.890;13.714;2023-08-24T04:55:53;101018.69;;;22.08;100.00
77159;BME280;66129;45.890;13.714;2023-08-24T04:58:19;101010.09;;;22.41;100.00
77159;BME280;66129;45.890;13.714;2023-08-24T05:00:45;101003.94;;;22.77;98.73
77159;BME280;66129;45.890;13.714;2023-08-24T05:03:11;101011.47;;;23.21;95.92
77159;BME280;66129;45.890;13.714;2023-08-24T05:05:37;101011.16;;;23.31;93.94
77159;BME280;66129;45.890;13.714;2023-08-24T05:08:04;101023.84;;;23.46;93.09
77159;BME280;66129;45.890;13.714;2023-08-24T05:10:36;101025.50;;;23.77;91.75
77159;BME280;66129;45.890;13.714;2023-08-24T05:13:02;101018.94;;;23.93;90.29
77159;BME280;66129;45.890;13.714;2023-08-24T05:15:28;101020.69;;;24.20;89.26
77159;BME280;66129;45.890;13.714;2023-08-24T05:17:54;101018.78;;;24.25;88.95
77159;BME280;66129;45.890;13.714;2023-08-24T05:20:22;101016.31;;;24.48;88.63
77159;BME280;66129;45.890;13.714;2023-08-24T05:22:48;101018.63;;;24.81;86.88
77159;BME280;66129;45.890;13.714;2023-08-24T05:25:14;101008.44;;;24.98;84.53
77159;BME280;66129;45.890;13.714;2023-08-24T05:27:42;101011.97;;;25.22;83.51
77159;BME280;66129;45.890;13.714;2023-08-24T05:30:08;101007.19;;;25.33;82.27
77159;BME280;66129;45.890;13.714;2023-08-24T05:32:34;101018.19;;;25.65;80.52
77159;BME280;66129;45.890;13.714;2023-08-24T05:35:03;101017.84;;;25.74;79.73
77159;BME280;66129;45.890;13.714;2023-08-24T05:37:29;101015.28;;;25.96;78.83
77159;BME280;66129;45.890;13.714;2023-08-24T05:39:54;101017.63;;;26.03;78.41
77159;BME280;66129;45.890;13.714;2023-08-24T05:42:20;101020.19;;;26.26;77.87
77159;BME280;66129;45.890;13.714;2023-08-24T05:44:45;101019.63;;;26.61;77.28
77159;BME280;66129;45.890;13.714;2023-08-24T05:47:10;101016.94;;;26.82;76.56
77159;BME280;66129;45.890;13.714;2023-08-24T05:49:36;101027.47;;;27.02;76.00
77159;BME280;66129;45.890;13.714;2023-08-24T05:52:02;101026.56;;;27.61;73.75
77159;BME280;66129;45.890;13.714;2023-08-24T05:54:27;101019.47;;;28.00;71.60
77159;BME280;66129;45.890;13.714;2023-08-24T05:56:53;101030.72;;;28.04;71.43
77159;BME280;66129;45.890;13.714;2023-08-24T05:59:18;101019.75;;;28.31;70.14
77159;BME280;66129;45.890;13.714;2023-08-24T06:01:43;101023.25;;;28.48;68.09
77159;BME280;66129;45.890;13.714;2023-08-24T06:04:09;101027.94;;;28.77;65.17
77159;BME280;66129;45.890;13.714;2023-08-24T06:06:35;101020.28;;;28.90;64.39
77159;BME280;66129;45.890;13.714;2023-08-24T06:09:01;101025.47;;;28.91;65.48
77159;BME280;66129;45.890;13.714;2023-08-24T06:11:29;101025.28;;;29.76;63.46
77159;BME280;66129;45.890;13.714;2023-08-24T06:13:54;101029.34;;;30.14;61.61
77159;BME280;66129;45.890;13.714;2023-08-24T06:16:20;101022.66;;;30.22;61.92
77159;BME280;66129;45.890;13.714;2023-08-24T06:18:46;101025.91;;;29.81;63.22
77159;BME280;66129;45.890;13.714;2023-08-24T06:21:11;101029.44;;;30.12;62.55
77159;BME280;66129;45.890;13.714;2023-08-24T06:23:38;101028.84;;;30.23;62.36
77159;BME280;66129;45.890;13.714;2023-08-24T06:26:04;101026.19;;;30.07;62.61
77159;BME280;66129;45.890;13.714;2023-08-24T06:28:30;101034.28;;;30.20;62.39
77159;BME280;66129;45.890;13.714;2023-08-24T06:30:55;101033.06;;;30.41;61.99
77159;BME280;66129;45.890;13.714;2023-08-24T06:33:27;101029.13;;;30.48;62.05
77159;BME280;66129;45.890;13.714;2023-08-24T06:35:56;101031.19;;;30.58;61.75
77159;BME280;66129;45.890;13.714;2023-08-24T06:38:21;101034.03;;;30.84;60.19
77159;BME280;66129;45.890;13.714;2023-08-24T06:40:47;101033.06;;;31.15;58.34
77159;BME280;66129;45.890;13.714;2023-08-24T06:43:16;101032.59;;;31.50;56.18
77159;BME280;66129;45.890;13.714;2023-08-24T06:45:48;101038.75;;;31.65;56.64
77159;BME280;66129;45.890;13.714;2023-08-24T06:48:13;101038.00;;;31.90;54.91
77159;BME280;66129;45.890;13.714;2023-08-24T06:50:39;101022.31;;;32.14;54.41
77159;BME280;66129;45.890;13.714;2023-08-24T06:53:04;101025.50;;;32.33;53.94
77159;BME280;66129;45.890;13.714;2023-08-24T06:55:30;101028.41;;;32.55;53.14
77159;BME280;66129;45.890;13.714;2023-08-24T06:57:56;101031.13;;;32.41;53.10
77159;BME280;66129;45.890;13.714;2023-08-24T07:00:22;101020.25;;;32.97;50.20
77159;BME280;66129;45.890;13.714;2023-08-24T07:02:51;101025.50;;;33.23;51.95
77159;BME280;66129;45.890;13.714;2023-08-24T07:05:16;101022.19;;;33.69;51.23
77159;BME280;66129;45.890;13.714;2023-08-24T07:07:46;101023.19;;;33.92;48.58
77159;BME280;66129;45.890;13.714;2023-08-24T07:10:12;101024.00;;;33.69;49.33
77159;BME280;66129;45.890;13.714;2023-08-24T07:12:38;101020.03;;;33.74;50.25
77159;BME280;66129;45.890;13.714;2023-08-24T07:15:07;101022.19;;;33.69;49.82
77159;BME280;66129;45.890;13.714;2023-08-24T07:17:33;101021.22;;;33.70;50.63
77159;BME280;66129;45.890;13.714;2023-08-24T07:19:59;101022.94;;;34.07;49.42
77159;BME280;66129;45.890;13.714;2023-08-24T07:22:24;101020.06;;;34.33;48.13
77159;BME280;66129;45.890;13.714;2023-08-24T07:24:52;101021.31;;;34.40;49.64
77159;BME280;66129;45.890;13.714;2023-08-24T07:27:18;101019.94;;;34.58;48.92
77159;BME280;66129;45.890;13.714;2023-08-24T07:29:44;101016.78;;;34.77;50.00
77159;BME280;66129;45.890;13.714;2023-08-24T07:32:09;101023.47;;;34.93;48.35
77159;BME280;66129;45.890;13.714;2023-08-24T07:34:35;101019.69;;;34.85;47.96
77159;BME280;66129;45.890;13.714;2023-08-24T07:37:01;101021.00;;;35.25;47.55
77159;BME280;66129;45.890;13.714;2023-08-24T07:39:26;101022.00;;;35.35;47.87
77159;BME280;66129;45.890;13.714;2023-08-24T07:41:52;101029.50;;;35.51;48.65
77159;BME280;66129;45.890;13.714;2023-08-24T07:44:17;101026.00;;;35.62;48.08
77159;BME280;66129;45.890;13.714;2023-08-24T07:46:43;101028.56;;;35.74;47.66
77159;BME280;66129;45.890;13.714;2023-08-24T07:49:08;101025.47;;;36.01;47.84
77159;BME280;66129;45.890;13.714;2023-08-24T07:51:34;101026.00;;;35.73;47.49
77159;BME280;66129;45.890;13.714;2023-08-24T07:54:00;101026.19;;;36.14;47.18
77159;BME280;66129;45.890;13.714;2023-08-24T07:56:25;101021.72;;;36.46;46.93
77159;BME280;66129;45.890;13.714;2023-08-24T07:58:51;101021.59;;;36.47;46.53
77159;BME280;66129;45.890;13.714;2023-08-24T08:01:16;101016.50;;;36.55;46.64
77159;BME280;66129;45.890;13.714;2023-08-24T08:03:42;101019.31;;;37.65;44.23
77159;BME280;66129;45.890;13.714;2023-08-24T08:06:08;101021.13;;;37.55;44.50
77159;BME280;66129;45.890;13.714;2023-08-24T08:08:33;101017.09;;;37.80;43.33
77159;BME280;66129;45.890;13.714;2023-08-24T08:11:00;101025.06;;;37.90;41.18
77159;BME280;66129;45.890;13.714;2023-08-24T08:13:30;101032.72;;;38.14;37.75
77159;BME280;66129;45.890;13.714;2023-08-24T08:16:03;101026.72;;;38.40;36.75
77159;BME280;66129;45.890;13.714;2023-08-24T08:18:30;101025.44;;;38.44;36.78
77159;BME280;66129;45.890;13.714;2023-08-24T08:20:56;101025.19;;;38.66;36.20
77159;BME280;66129;45.890;13.714;2023-08-24T08:23:21;101035.63;;;38.41;36.50
77159;BME280;66129;45.890;13.714;2023-08-24T08:25:47;101027.00;;;38.75;35.69
77159;BME280;66129;45.890;13.714;2023-08-24T08:28:12;101034.59;;;39.08;35.18
77159;BME280;66129;45.890;13.714;2023-08-24T08:30:38;101030.56;;;38.76;35.12
77159;BME280;66129;45.890;13.714;2023-08-24T08:33:03;101029.78;;;39.02;36.02
77159;BME280;66129;45.890;13.714;2023-08-24T08:35:30;101033.31;;;39.21;35.10
77159;BME280;66129;45.890;13.714;2023-08-24T08:37:55;101030.31;;;39.34;33.35
77159;BME280;66129;45.890;13.714;2023-08-24T08:40:21;101021.31;;;39.62;33.82
77159;BME280;66129;45.890;13.714;2023-08-24T08:42:46;101029.88;;;39.75;32.02
77159;BME280;66129;45.890;13.714;2023-08-24T08:45:12;101031.56;;;39.76;33.54
77159;BME280;66129;45.890;13.714;2023-08-24T08:47:38;101034.19;;;39.22;33.72
77159;BME280;66129;45.890;13.714;2023-08-24T08:50:06;101039.53;;;39.22;34.27
77159;BME280;66129;45.890;13.714;2023-08-24T08:52:32;101033.81;;;39.44;33.78
77159;BME280;66129;45.890;13.714;2023-08-24T08:54:59;101036.34;;;39.55;33.81
77159;BME280;66129;45.890;13.714;2023-08-24T08:57:25;101033.00;;;39.34;33.42
77159;BME280;66129;45.890;13.714;2023-08-24T08:59:52;101049.84;;;39.72;32.24
77159;BME280;66129;45.890;13.714;2023-08-24T09:02:19;101038.81;;;39.66;33.54
77159;BME280;66129;45.890;13.714;2023-08-24T09:04:45;101037.56;;;39.97;33.27
77159;BME280;66129;45.890;13.714;2023-08-24T09:07:13;101044.19;;;39.93;32.86
77159;BME280;66129;45.890;13.714;2023-08-24T09:09:39;101035.44;;;39.91;33.02
77159;BME280;66129;45.890;13.714;2023-08-24T09:12:07;101034.22;;;40.12;32.12
77159;BME280;66129;45.890;13.714;2023-08-24T09:14:34;101035.66;;;40.07;31.63
77159;BME280;66129;45.890;13.714;2023-08-24T09:16:59;101039.41;;;40.40;30.77
77159;BME280;66129;45.890;13.714;2023-08-24T09:19:29;101044.03;;;40.83;30.76
77159;BME280;66129;45.890;13.714;2023-08-24T09:22:01;101046.84;;;40.64;30.82
77159;BME280;66129;45.890;13.714;2023-08-24T09:24:33;101046.28;;;39.72;30.89
77159;BME280;66129;45.890;13.714;2023-08-24T09:27:03;101039.13;;;39.63;31.75
77159;BME280;66129;45.890;13.714;2023-08-24T09:29:39;101038.03;;;39.83;30.80
77159;BME280;66129;45.890;13.714;2023-08-24T09:32:07;101034.75;;;39.62;30.04
77159;BME280;66129;45.890;13.714;2023-08-24T09:34:33;101028.66;;;39.60;30.44
77159;BME280;66129;45.890;13.714;2023-08-24T09:36:59;101025.75;;;39.80;29.76
77159;BME280;66129;45.890;13.714;2023-08-24T09:39:24;101026.44;;;40.09;29.00
77159;BME280;66129;45.890;13.714;2023-08-24T09:41:50;101023.00;;;39.90;29.74
77159;BME280;66129;45.890;13.714;2023-08-24T09:44:19;101011.25;;;40.35;29.08
77159;BME280;66129;45.890;13.714;2023-08-24T09:46:45;101002.81;;;40.30;29.96
77159;BME280;66129;45.890;13.714;2023-08-24T09:49:11;100995.91;;;40.28;29.68
77159;BME280;66129;45.890;13.714;2023-08-24T09:51:38;101000.84;;;40.32;30.30
77159;BME280;66129;45.890;13.714;2023-08-24T09:54:05;101000.03;;;40.92;28.86
77159;BME280;66129;45.890;13.714;2023-08-24T09:56:36;101000.50;;;40.00;29.66
77159;BME280;66129;45.890;13.714;2023-08-24T09:59:14;101004.19;;;39.99;30.32
77159;BME280;66129;45.890;13.714;2023-08-24T10:01:46;101002.50;;;40.85;29.05
77159;BME280;66129;45.890;13.714;2023-08-24T10:04:21;100991.88;;;41.01;28.31
77159;BME280;66129;45.890;13.714;2023-08-24T10:06:51;100990.53;;;40.80;27.94
77159;BME280;66129;45.890;13.714;2023-08-24T10:09:31;100984.16;;;40.63;29.18
77159;BME280;66129;45.890;13.714;2023-08-24T10:12:04;100990.88;;;41.02;26.85
77159;BME280;66129;45.890;13.714;2023-08-24T10:14:53;100990.06;;;39.97;28.91
77159;BME280;66129;45.890;13.714;2023-08-24T10:17:22;100979.09;;;39.08;29.35
77159;BME280;66129;45.890;13.714;2023-08-24T10:19:51;100987.09;;;39.64;29.78
77159;BME280;66129;45.890;13.714;2023-08-24T10:22:19;100986.72;;;39.86;29.26
77159;BME280;66129;45.890;13.714;2023-08-24T10:24:46;100973.47;;;40.02;28.95
77159;BME280;66129;45.890;13.714;2023-08-24T10:27:13;100975.69;;;39.52;29.39
77159;BME280;66129;45.890;13.714;2023-08-24T10:29:39;100973.16;;;39.51;30.19
77159;BME280;66129;45.890;13.714;2023-08-24T10:32:05;100974.03;;;39.42;29.63
77159;BME280;66129;45.890;13.714;2023-08-24T10:34:32;100966.34;;;39.29;30.00
77159;BME280;66129;45.890;13.714;2023-08-24T10:37:09;100968.59;;;39.61;29.93
77159;BME280;66129;45.890;13.714;2023-08-24T10:39:36;100964.72;;;40.34;28.92
77159;BME280;66129;45.890;13.714;2023-08-24T10:42:04;100952.94;;;40.96;27.58
77159;BME280;66129;45.890;13.714;2023-08-24T10:44:36;100957.88;;;40.23;28.71
77159;BME280;66129;45.890;13.714;2023-08-24T10:49:56;100944.31;;;40.24;28.80
77159;BME280;66129;45.890;13.714;2023-08-24T10:52:24;100938.72;;;40.00;28.79
77159;BME280;66129;45.890;13.714;2023-08-24T10:54:51;100951.00;;;40.37;28.76
77159;BME280;66129;45.890;13.714;2023-08-24T10:57:35;100953.88;;;40.27;28.83
77159;BME280;66129;45.890;13.714;2023-08-24T11:02:42;100948.38;;;39.66;30.20
77159;BME280;66129;45.890;13.714;2023-08-24T11:05:24;100946.00;;;40.08;29.70
77159;BME280;66129;45.890;13.714;2023-08-24T11:07:57;100941.22;;;40.02;30.08
77159;BME280;66129;45.890;13.714;2023-08-24T11:10:25;100937.97;;;39.81;29.78
77159;BME280;66129;45.890;13.714;2023-08-24T11:15:30;100942.81;;;39.41;30.06
77159;BME280;66129;45.890;13.714;2023-08-24T11:20:52;100942.53;;;40.15;29.45
77159;BME280;66129;45.890;13.714;2023-08-24T11:23:19;100947.25;;;40.73;29.55
77159;BME280;66129;45.890;13.714;2023-08-24T11:25:46;100939.56;;;41.04;28.74
77159;BME280;66129;45.890;13.714;2023-08-24T11:28:16;100945.78;;;41.04;26.60
77159;BME280;66129;45.890;13.714;2023-08-24T11:30:43;100937.25;;;40.83;26.86
77159;BME280;66129;45.890;13.714;2023-08-24T11:33:11;100937.06;;;40.59;25.86
77159;BME280;66129;45.890;13.714;2023-08-24T11:35:40;100933.88;;;40.38;27.13
77159;BME280;66129;45.890;13.714;2023-08-24T11:38:05;100936.94;;;40.43;27.75
77159;BME280;66129;45.890;13.714;2023-08-24T11:40:31;100929.00;;;40.42;26.85
77159;BME280;66129;45.890;13.714;2023-08-24T11:42:56;100931.72;;;39.80;27.97
77159;BME280;66129;45.890;13.714;2023-08-24T11:45:22;100927.69;;;40.28;28.82
77159;BME280;66129;45.890;13.714;2023-08-24T11:47:49;100925.09;;;40.54;28.65
77159;BME280;66129;45.890;13.714;2023-08-24T11:50:14;100913.53;;;40.61;27.22
77159;BME280;66129;45.890;13.714;2023-08-24T11:52:41;100923.97;;;40.82;29.48
77159;BME280;66129;45.890;13.714;2023-08-24T11:55:07;100924.09;;;40.55;30.19
77159;BME280;66129;45.890;13.714;2023-08-24T11:57:34;100916.13;;;40.45;28.67
77159;BME280;66129;45.890;13.714;2023-08-24T12:00:01;100919.50;;;40.47;28.58
77159;BME280;66129;45.890;13.714;2023-08-24T12:02:27;100917.13;;;40.10;27.99
77159;BME280;66129;45.890;13.714;2023-08-24T12:04:53;100909.19;;;40.08;29.18
77159;BME280;66129;45.890;13.714;2023-08-24T12:07:20;100921.34;;;39.41;29.98
77159;BME280;66129;45.890;13.714;2023-08-24T12:09:46;100914.69;;;39.18;28.22
77159;BME280;66129;45.890;13.714;2023-08-24T12:12:15;100919.50;;;39.05;30.29
77159;BME280;66129;45.890;13.714;2023-08-24T12:14:42;100919.34;;;38.51;28.47
77159;BME280;66129;45.890;13.714;2023-08-24T12:17:09;100902.16;;;38.06;28.17
77159;BME280;66129;45.890;13.714;2023-08-24T12:19:34;100903.13;;;37.96;30.05
77159;BME280;66129;45.890;13.714;2023-08-24T12:22:00;100904.97;;;38.05;29.42
77159;BME280;66129;45.890;13.714;2023-08-24T12:24:25;100911.88;;;37.98;28.89
77159;BME280;66129;45.890;13.714;2023-08-24T12:26:57;100897.94;;;37.94;28.25
77159;BME280;66129;45.890;13.714;2023-08-24T12:29:24;100893.41;;;37.86;29.79
77159;BME280;66129;45.890;13.714;2023-08-24T12:31:50;100889.16;;;37.74;29.86
77159;BME280;66129;45.890;13.714;2023-08-24T12:34:15;100892.66;;;37.55;28.16
77159;BME280;66129;45.890;13.714;2023-08-24T12:36:41;100889.81;;;37.47;29.11
77159;BME280;66129;45.890;13.714;2023-08-24T12:39:11;100892.63;;;37.46;29.83
77159;BME280;66129;45.890;13.714;2023-08-24T12:41:38;100873.47;;;37.41;29.73
77159;BME280;66129;45.890;13.714;2023-08-24T12:44:04;100875.28;;;37.40;28.67
77159;BME280;66129;45.890;13.714;2023-08-24T12:46:34;100880.88;;;37.37;30.84
77159;BME280;66129;45.890;13.714;2023-08-24T12:49:00;100872.53;;;37.31;29.37
77159;BME280;66129;45.890;13.714;2023-08-24T12:51:26;100869.44;;;37.26;29.60
77159;BME280;66129;45.890;13.714;2023-08-24T12:53:52;100872.94;;;37.17;29.88